This is the latest recevied weather packets stored in our database for station/object F4AMY-13. If no packets are shown the sender has not sent any weather packets the latest 10 day(s).
| Time | Temp. | Humidity | Pressure | Rain* | Wind** | Luminosity | Snow |
|---|---|---|---|---|---|---|---|
| 1777225550 | 21.11° C | 73% | 1015.7 hPa | 0 mm | 8.05 m/s, ° | 18 W/m² | - |
| 1777225250 | 21.67° C | 72% | 1015.6 hPa | 0 mm | 8.94 m/s, ° | 20 W/m² | - |
| 1777224950 | 22.78° C | 70% | 1015.5 hPa | 0 mm | 10.28 m/s, ° | 23 W/m² | - |
| 1777224650 | 23.33° C | 68% | 1015.5 hPa | 0 mm | 11.18 m/s, ° | 25 W/m² | - |
| 1777224349 | 23.89° C | 67% | 1015.6 hPa | 0 mm | 12.52 m/s, ° | 28 W/m² | - |
| 1777224049 | 23.89° C | 67% | 1015.6 hPa | 0 mm | 12.52 m/s, ° | 28 W/m² | - |
| 1777223749 | 24.44° C | 65% | 1015.6 hPa | 0 mm | 14.31 m/s, ° | 32 W/m² | - |
| 1777223449 | 25° C | 64% | 1015.5 hPa | 0 mm | 45.6 m/s, ° | 102 W/m² | - |
| 1777223149 | 25° C | 61% | 1015.2 hPa | 0 mm | 31.74 m/s, ° | 71 W/m² | - |
| 1777222849 | 25° C | 58% | 1015.5 hPa | 0 mm | 19.67 m/s, ° | 44 W/m² | - |
| 1777222549 | 25° C | 57% | 1015.5 hPa | 0 mm | 77.34 m/s, ° | 173 W/m² | - |
| 1777222249 | 25° C | 57% | 1015.4 hPa | 0 mm | 92.98 m/s, ° | 208 W/m² | - |
| 1777221949 | 25.56° C | 56% | 1015.6 hPa | 0 mm | 99.69 m/s, ° | 223 W/m² | - |
| 1777221649 | 25.56° C | 56% | 1015.6 hPa | 0 mm | 105.05 m/s, ° | 235 W/m² | - |
| 1777221349 | 26.11° C | 57% | 1015.7 hPa | 0 mm | 108.63 m/s, ° | 243 W/m² | - |
| 1777221049 | 26.67° C | 57% | 1015.6 hPa | 0 mm | 113.55 m/s, ° | 254 W/m² | - |
| 1777220749 | 26.67° C | 57% | 1015.7 hPa | 0 mm | 118.91 m/s, ° | 266 W/m² | - |
| 1777220449 | 27.22° C | 59% | 1015.6 hPa | 0 mm | 123.83 m/s, ° | 277 W/m² | - |
| 1777220149 | 27.22° C | 54% | 1015.7 hPa | 0 mm | 133.22 m/s, ° | 298 W/m² | - |
| 1777219849 | 26.67° C | 53% | 1015.5 hPa | 0 mm | 126.96 m/s, ° | 284 W/m² | - |
| 1777219549 | 26.11° C | 51% | 1015.6 hPa | 0 mm | 82.7 m/s, ° | 185 W/m² | - |
| 1777219249 | 25.56° C | 56% | 1015.7 hPa | 0 mm | 139.48 m/s, ° | 312 W/m² | - |
| 1777218948 | 25° C | 53% | 1015.6 hPa | 0 mm | 84.04 m/s, ° | 188 W/m² | - |
| 1777218648 | 25° C | 51% | 1015.6 hPa | 0 mm | 74.21 m/s, ° | 166 W/m² | - |
| 1777218348 | 24.44° C | 58% | 1015.6 hPa | 0 mm | 144.84 m/s, ° | 324 W/m² | - |
* Rain latest hour (hover to see other rain measurements)
** Current wind speed in m/s (hover to see current wind gust speed)